createdAt,value
2022-08-17T00:00:43.125Z,6.77
2022-08-17T00:03:13.643Z,6.27
2022-08-17T00:05:50.314Z,7.00
2022-08-17T00:08:22.363Z,6.90
2022-08-17T00:10:52.735Z,8.43
2022-08-17T00:13:27.443Z,5.50
2022-08-17T00:16:00.441Z,5.07
2022-08-17T00:19:06.484Z,6.47
2022-08-17T00:21:23.844Z,8.67
2022-08-17T00:23:54.620Z,6.00
2022-08-17T00:26:43.416Z,7.73
2022-08-17T00:29:16.457Z,4.77
2022-08-17T00:31:50.232Z,5.90
2022-08-17T00:34:18.999Z,5.47
2022-08-17T00:36:49.007Z,5.63
2022-08-17T00:39:17.386Z,5.97
2022-08-17T00:41:45.533Z,5.40
2022-08-17T00:44:13.654Z,6.50
2022-08-17T00:46:45.574Z,6.97
2022-08-17T00:49:19.327Z,5.43
2022-08-17T00:51:55.474Z,6.90
2022-08-17T00:54:30.214Z,6.97
2022-08-17T00:57:08.158Z,6.10
2022-08-17T00:59:42.262Z,8.83
2022-08-17T01:02:13.714Z,5.50
2022-08-17T01:04:45.822Z,5.97
2022-08-17T01:07:15.301Z,9.13
2022-08-17T01:09:45.116Z,6.70
2022-08-17T01:12:13.942Z,6.83
2022-08-17T01:14:42.991Z,5.43
2022-08-17T01:17:11.844Z,6.90
2022-08-17T01:19:44.095Z,6.47
2022-08-17T01:22:23.193Z,6.77
2022-08-17T01:24:59.213Z,5.70
2022-08-17T01:27:28.207Z,8.03
2022-08-17T01:30:03.047Z,8.80
2022-08-17T01:32:31.660Z,5.30
2022-08-17T01:35:01.642Z,10.13
2022-08-17T01:37:35.524Z,7.87
2022-08-17T01:40:10.389Z,8.67
2022-08-17T01:42:45.850Z,10.70
2022-08-17T01:45:24.812Z,5.17
2022-08-17T01:47:54.726Z,7.40
2022-08-17T01:50:28.480Z,7.10
2022-08-17T01:53:04.948Z,5.73
2022-08-17T01:55:41.695Z,6.30
2022-08-17T01:58:10.022Z,6.80
2022-08-17T02:01:01.016Z,6.00
2022-08-17T02:03:26.921Z,5.77
2022-08-17T02:05:55.746Z,6.37
2022-08-17T02:08:39.116Z,6.17
2022-08-17T02:11:16.887Z,7.17
2022-08-17T02:13:47.577Z,8.27
2022-08-17T02:16:23.208Z,6.63
2022-08-17T02:18:51.370Z,7.47
2022-08-17T02:21:20.066Z,7.93
2022-08-17T02:23:51.129Z,6.13
2022-08-17T02:26:25.775Z,6.83
2022-08-17T02:28:55.358Z,7.23
2022-08-17T02:31:23.519Z,9.67
2022-08-17T02:34:00.324Z,6.13
2022-08-17T02:36:33.008Z,12.07
2022-08-17T02:39:02.969Z,7.83
2022-08-17T02:41:31.466Z,7.80
2022-08-17T02:44:00.004Z,6.47
2022-08-17T02:46:29.088Z,15.67
2022-08-17T02:48:57.494Z,8.77
2022-08-17T02:51:26.180Z,7.53
2022-08-17T02:54:02.818Z,6.40
2022-08-17T02:56:44.104Z,6.67
2022-08-17T02:59:12.509Z,6.10
2022-08-17T03:01:40.889Z,7.37
2022-08-17T03:04:10.777Z,9.07
2022-08-17T03:06:38.924Z,7.70
2022-08-17T03:09:06.997Z,8.27
2022-08-17T03:11:35.379Z,8.17
2022-08-17T03:14:04.904Z,7.77
2022-08-17T03:16:33.056Z,11.17
2022-08-17T03:19:01.617Z,7.23
2022-08-17T03:21:29.715Z,9.47
2022-08-17T03:23:58.149Z,6.47
2022-08-17T03:26:29.652Z,6.47
2022-08-17T03:28:58.123Z,8.93
2022-08-17T03:31:27.574Z,7.10
2022-08-17T03:33:56.266Z,6.87
2022-08-17T03:36:24.697Z,8.93
2022-08-17T03:38:52.885Z,10.13
2022-08-17T03:41:23.116Z,6.77
2022-08-17T03:43:51.183Z,6.57
2022-08-17T03:46:36.952Z,9.47
2022-08-17T03:49:27.175Z,7.60
2022-08-17T03:52:13.670Z,7.47
2022-08-17T03:55:00.852Z,7.70
2022-08-17T03:57:29.941Z,9.03
2022-08-17T03:59:58.143Z,6.73
2022-08-17T04:02:32.120Z,7.80
2022-08-17T04:05:02.318Z,9.27
2022-08-17T04:07:32.333Z,7.73
2022-08-17T04:10:00.806Z,7.27
2022-08-17T04:12:43.169Z,7.20
2022-08-17T04:15:12.521Z,7.23
2022-08-17T04:17:40.758Z,7.73
2022-08-17T04:20:12.412Z,8.87
2022-08-17T04:22:40.614Z,7.53
2022-08-17T04:25:15.759Z,7.37
2022-08-17T04:27:43.907Z,7.57
2022-08-17T04:30:14.216Z,9.47
2022-08-17T04:33:03.813Z,7.70
2022-08-17T04:35:40.276Z,10.20
2022-08-17T04:38:12.228Z,10.27
2022-08-17T04:40:58.580Z,10.53
2022-08-17T04:43:30.910Z,13.90
2022-08-17T04:46:03.273Z,8.47
2022-08-17T04:48:37.813Z,11.60
2022-08-17T04:51:13.268Z,8.00
2022-08-17T04:53:45.225Z,11.63
2022-08-17T04:56:16.866Z,11.63
2022-08-17T04:58:49.939Z,12.90
2022-08-17T05:01:23.748Z,10.50
2022-08-17T05:03:53.777Z,8.43
2022-08-17T05:06:24.219Z,8.50
2022-08-17T05:08:52.386Z,8.37
2022-08-17T05:11:21.451Z,9.20
2022-08-17T05:13:50.688Z,11.93
2022-08-17T05:16:20.097Z,12.20
2022-08-17T05:18:49.226Z,8.00
2022-08-17T05:21:19.691Z,11.33
2022-08-17T05:23:50.304Z,9.13
2022-08-17T05:26:26.886Z,9.40
2022-08-17T05:28:59.397Z,10.97
2022-08-17T05:31:29.504Z,8.67
2022-08-17T05:33:58.200Z,10.97
2022-08-17T05:36:43.287Z,9.53
2022-08-17T05:39:15.725Z,8.90
2022-08-17T05:41:47.913Z,10.10
2022-08-17T05:44:16.486Z,8.23
2022-08-17T05:46:51.163Z,11.57
2022-08-17T05:49:29.263Z,9.83
2022-08-17T05:52:19.869Z,10.33
2022-08-17T05:55:15.073Z,13.67
2022-08-17T05:58:06.697Z,8.70
2022-08-17T06:00:50.488Z,10.60
2022-08-17T06:03:42.535Z,12.13
2022-08-17T06:06:31.805Z,11.10
2022-08-17T06:09:27.625Z,15.40
2022-08-17T06:12:14.315Z,13.13
2022-08-17T06:15:12.755Z,11.00
2022-08-17T06:17:43.172Z,11.77
2022-08-17T06:20:17.117Z,10.80
2022-08-17T06:22:56.813Z,11.17
2022-08-17T06:25:35.717Z,13.53
2022-08-17T06:28:14.072Z,11.43
2022-08-17T06:31:00.805Z,10.63
2022-08-17T06:33:37.314Z,13.00
2022-08-17T06:36:31.209Z,12.50
2022-08-17T06:39:28.819Z,14.97
2022-08-17T06:42:54.982Z,15.77
2022-08-17T06:45:13.536Z,10.90
2022-08-17T06:47:56.974Z,9.33
2022-08-17T06:50:35.921Z,11.03
2022-08-17T06:53:14.412Z,11.90
2022-08-17T06:55:51.301Z,13.93
2022-08-17T06:58:24.033Z,10.80
2022-08-17T07:01:09.121Z,9.93
2022-08-17T07:03:46.814Z,11.87
2022-08-17T07:06:19.706Z,8.90
2022-08-17T07:09:02.210Z,12.53
2022-08-17T07:11:39.830Z,10.10
2022-08-17T07:14:29.161Z,11.20
2022-08-17T07:17:03.830Z,10.57
2022-08-17T07:19:36.099Z,10.17
2022-08-17T07:22:23.507Z,11.80
2022-08-17T07:24:57.265Z,10.73
2022-08-17T07:27:30.954Z,8.93
2022-08-17T07:30:10.795Z,8.47
2022-08-17T07:32:46.223Z,8.10
2022-08-17T07:35:21.135Z,7.67
2022-08-17T07:37:54.427Z,8.23
2022-08-17T07:40:34.803Z,8.45
2022-08-17T07:43:23.619Z,10.90
2022-08-17T07:46:17.761Z,9.40
2022-08-17T07:48:51.606Z,11.00
2022-08-17T07:51:29.946Z,7.93
2022-08-17T07:54:14.141Z,7.55
2022-08-17T07:56:48.182Z,7.78
2022-08-17T07:59:23.707Z,8.40
2022-08-17T08:02:28.989Z,8.00
2022-08-17T08:05:10.083Z,6.85
2022-08-17T08:07:51.422Z,8.30
2022-08-17T08:10:32.322Z,7.28
2022-08-17T08:13:14.430Z,6.43
2022-08-17T08:15:53.755Z,6.18
2022-08-17T08:18:54.943Z,6.72
2022-08-17T08:21:31.431Z,9.82
2022-08-17T08:24:22.659Z,7.18
2022-08-17T08:27:01.519Z,8.70
2022-08-17T08:29:42.962Z,10.20
2022-08-17T08:32:21.086Z,6.47
2022-08-17T08:35:03.928Z,5.68
2022-08-17T08:37:53.155Z,7.93
2022-08-17T08:40:40.486Z,11.05
2022-08-17T08:43:28.727Z,6.15
2022-08-17T08:46:12.674Z,5.38
2022-08-17T08:49:11.957Z,5.05
2022-08-17T08:51:55.428Z,5.28
2022-08-17T08:54:39.621Z,4.93
2022-08-17T08:57:25.431Z,7.60
2022-08-17T09:00:12.563Z,6.60
2022-08-17T09:03:51.899Z,6.03
2022-08-17T09:06:39.800Z,9.52
2022-08-17T09:09:24.306Z,4.47
2022-08-17T09:12:05.390Z,5.18
2022-08-17T09:14:46.418Z,4.03
2022-08-17T09:17:20.278Z,5.28
2022-08-17T09:19:55.620Z,6.43
2022-08-17T09:22:34.775Z,8.00
2022-08-17T09:25:11.799Z,4.10
2022-08-17T09:28:00.777Z,6.65
2022-08-17T09:30:46.466Z,4.47
2022-08-17T09:33:26.070Z,5.78
2022-08-17T09:36:01.094Z,6.07
2022-08-17T09:38:41.730Z,5.32
2022-08-17T09:41:20.914Z,5.38
2022-08-17T09:43:59.952Z,4.40
2022-08-17T09:46:35.720Z,6.35
2022-08-17T09:49:15.052Z,4.80
2022-08-17T09:51:49.617Z,4.05
2022-08-17T09:54:44.466Z,4.40
2022-08-17T09:57:30.703Z,6.80
2022-08-17T10:00:23.710Z,8.02
2022-08-17T10:03:39.706Z,3.67
2022-08-17T10:06:22.138Z,4.78
2022-08-17T10:09:06.531Z,5.88
2022-08-17T10:12:01.259Z,3.47
2022-08-17T10:14:43.951Z,3.40
2022-08-17T10:17:28.811Z,4.45
2022-08-17T10:20:10.648Z,5.63
2022-08-17T10:23:05.582Z,4.65
2022-08-17T10:26:08.515Z,5.28
2022-08-17T10:28:45.232Z,6.43
2022-08-17T10:31:34.839Z,5.22
2022-08-17T10:34:41.089Z,6.70
2022-08-17T10:37:38.066Z,8.57
2022-08-17T10:40:26.626Z,5.25
2022-08-17T10:43:01.590Z,5.07
2022-08-17T10:45:38.808Z,4.45
2022-08-17T10:48:33.088Z,4.32
2022-08-17T10:51:08.684Z,5.85
2022-08-17T10:53:58.845Z,3.05
2022-08-17T10:56:51.359Z,3.75
2022-08-17T10:59:54.775Z,5.72
2022-08-17T11:02:31.545Z,4.90
2022-08-17T11:05:54.349Z,9.25
2022-08-17T11:09:07.781Z,2.97
2022-08-17T11:12:10.202Z,3.13
2022-08-17T11:15:04.811Z,5.10
2022-08-17T11:18:04.697Z,3.65
2022-08-17T11:21:35.748Z,4.00
2022-08-17T11:24:22.071Z,3.67
2022-08-17T11:27:09.141Z,3.75
2022-08-17T11:30:01.913Z,2.80
2022-08-17T11:32:47.350Z,3.17
2022-08-17T11:35:40.334Z,2.85
2022-08-17T11:38:27.233Z,3.15
2022-08-17T11:41:20.964Z,2.88
2022-08-17T11:44:19.714Z,3.13
2022-08-17T11:47:28.973Z,2.95
2022-08-17T11:50:44.453Z,3.45
2022-08-17T11:54:31.848Z,2.85
2022-08-17T11:57:02.194Z,6.88
2022-08-17T11:59:59.756Z,6.63
2022-08-17T12:02:38.792Z,2.67
2022-08-17T12:05:37.115Z,4.05
2022-08-17T12:08:17.756Z,3.35
2022-08-17T12:11:01.741Z,3.28
2022-08-17T12:13:39.895Z,2.90
2022-08-17T12:16:10.000Z,6.93
2022-08-17T12:18:41.948Z,2.88
2022-08-17T12:21:34.350Z,3.00
2022-08-17T12:24:14.546Z,5.13
2022-08-17T12:26:44.115Z,4.05
2022-08-17T12:29:35.951Z,3.38
2022-08-17T12:32:14.032Z,6.75
2022-08-17T12:34:45.324Z,5.45
2022-08-17T12:37:20.052Z,2.75
2022-08-17T12:39:59.689Z,3.15
2022-08-17T12:42:34.720Z,4.32
2022-08-17T12:45:06.612Z,8.20
2022-08-17T12:47:38.462Z,3.45
2022-08-17T12:50:29.033Z,3.65
2022-08-17T12:53:02.024Z,3.63
2022-08-17T12:55:38.756Z,2.97
2022-08-17T12:58:14.410Z,3.92
2022-08-17T13:00:56.268Z,3.55
2022-08-17T13:03:27.880Z,2.97
2022-08-17T13:05:59.854Z,5.57
2022-08-17T13:08:36.358Z,3.05
2022-08-17T13:11:09.349Z,6.43
2022-08-17T13:13:42.264Z,3.15
2022-08-17T13:16:21.882Z,4.10
2022-08-17T13:18:55.274Z,7.38
2022-08-17T13:21:30.522Z,3.40
2022-08-17T13:24:03.102Z,3.92
2022-08-17T13:26:36.484Z,3.50
2022-08-17T13:29:18.439Z,7.07
2022-08-17T13:31:52.148Z,6.30
2022-08-17T13:35:06.526Z,4.07
2022-08-17T13:37:33.458Z,3.75
2022-08-17T13:40:31.335Z,4.82
2022-08-17T13:43:02.428Z,3.88
2022-08-17T13:45:50.639Z,3.35
2022-08-17T13:48:27.502Z,8.30
2022-08-17T13:51:18.119Z,4.85
2022-08-17T13:54:05.100Z,4.07
2022-08-17T13:56:57.637Z,4.45
2022-08-17T13:59:54.395Z,3.10
2022-08-17T14:02:26.020Z,4.25
2022-08-17T14:04:58.523Z,6.70
2022-08-17T14:07:35.808Z,2.95
2022-08-17T14:10:12.995Z,4.93
2022-08-17T14:12:46.052Z,4.93
2022-08-17T14:15:17.428Z,4.38
2022-08-17T14:17:45.637Z,3.72
2022-08-17T14:20:16.636Z,3.47
2022-08-17T14:22:48.237Z,4.57
2022-08-17T14:25:22.436Z,3.65
2022-08-17T14:27:54.073Z,4.45
2022-08-17T14:30:28.979Z,3.22
2022-08-17T14:33:02.007Z,3.25
2022-08-17T14:35:31.053Z,7.75
2022-08-17T14:37:59.655Z,5.13
2022-08-17T14:40:28.090Z,3.40
2022-08-17T14:42:58.863Z,3.10
2022-08-17T14:45:32.852Z,2.78
2022-08-17T14:48:05.604Z,3.65
2022-08-17T14:50:35.810Z,4.90
2022-08-17T14:53:05.179Z,3.60
2022-08-17T14:55:33.737Z,3.78
2022-08-17T14:58:04.013Z,4.35
2022-08-17T15:00:32.592Z,4.80
2022-08-17T15:03:03.007Z,3.53
2022-08-17T15:05:37.310Z,5.90
2022-08-17T15:08:08.768Z,4.35
2022-08-17T15:10:37.619Z,6.15
2022-08-17T15:13:18.819Z,6.35
2022-08-17T15:15:47.893Z,4.10
2022-08-17T15:18:16.853Z,2.70
2022-08-17T15:20:48.593Z,3.10
2022-08-17T15:23:20.104Z,4.97
2022-08-17T15:25:51.166Z,4.72
2022-08-17T15:28:22.754Z,4.60
2022-08-17T15:30:52.097Z,7.55
2022-08-17T15:33:29.114Z,4.70
2022-08-17T15:35:59.398Z,9.40
2022-08-17T15:38:28.689Z,5.75
2022-08-17T15:40:58.379Z,4.32
2022-08-17T15:43:32.542Z,5.65
2022-08-17T15:46:04.368Z,4.95
2022-08-17T15:48:44.528Z,3.28
2022-08-17T15:51:16.231Z,6.50
2022-08-17T15:53:47.917Z,7.43
2022-08-17T15:56:17.204Z,8.27
2022-08-17T15:58:49.939Z,3.88
2022-08-17T16:02:33.657Z,5.57
2022-08-17T16:04:26.624Z,5.03
2022-08-17T16:06:59.048Z,4.43
2022-08-17T16:09:27.474Z,2.88
2022-08-17T16:11:56.443Z,2.88
2022-08-17T16:14:33.829Z,3.25
2022-08-17T16:17:04.482Z,3.38
2022-08-17T16:19:34.241Z,3.30
2022-08-17T16:22:02.849Z,4.15
2022-08-17T16:24:32.373Z,6.15
2022-08-17T16:27:01.197Z,6.13
2022-08-17T16:29:30.946Z,3.65
2022-08-17T16:31:59.268Z,4.60
2022-08-17T16:34:27.364Z,4.28
2022-08-17T16:36:56.655Z,5.10
2022-08-17T16:39:27.594Z,5.40
2022-08-17T16:41:56.777Z,4.43
2022-08-17T16:44:25.835Z,3.17
2022-08-17T16:46:57.430Z,6.75
2022-08-17T16:49:36.635Z,3.33
2022-08-17T16:52:11.194Z,4.72
2022-08-17T16:54:43.635Z,3.33
2022-08-17T16:57:12.817Z,5.10
2022-08-17T16:59:44.918Z,4.90
2022-08-17T17:02:24.556Z,7.63
2022-08-17T17:05:02.653Z,4.38
2022-08-17T17:07:53.584Z,5.95
2022-08-17T17:10:29.737Z,5.28
2022-08-17T17:13:02.342Z,5.70
2022-08-17T17:15:51.691Z,4.47
2022-08-17T17:18:36.396Z,9.07
2022-08-17T17:21:06.473Z,6.32
2022-08-17T17:23:52.924Z,3.60
2022-08-17T17:26:56.810Z,4.15
2022-08-17T17:29:47.955Z,3.70
2022-08-17T17:32:26.079Z,4.28
2022-08-17T17:35:04.933Z,4.10
2022-08-17T17:37:36.551Z,7.57
2022-08-17T17:40:14.220Z,7.10
2022-08-17T17:42:45.253Z,4.90
2022-08-17T17:45:21.858Z,5.57
2022-08-17T17:47:53.700Z,7.45
2022-08-17T17:50:33.853Z,9.75
2022-08-17T17:53:09.540Z,7.05
2022-08-17T17:55:59.483Z,5.57
2022-08-17T17:58:43.858Z,4.68
2022-08-17T18:01:33.300Z,6.38
2022-08-17T18:04:21.361Z,4.28
2022-08-17T18:07:11.159Z,7.50
2022-08-17T18:10:19.462Z,4.97
2022-08-17T18:13:04.475Z,5.72
2022-08-17T18:15:41.436Z,8.68
2022-08-17T18:18:37.864Z,11.73
2022-08-17T18:21:16.663Z,7.03
2022-08-17T18:23:54.510Z,8.32
2022-08-17T18:26:45.092Z,8.48
2022-08-17T18:29:25.604Z,6.13
2022-08-17T18:32:29.868Z,5.07
2022-08-17T18:35:03.640Z,7.75
2022-08-17T18:37:39.437Z,6.07
2022-08-17T18:40:37.514Z,5.78
2022-08-17T18:43:24.544Z,5.60
2022-08-17T18:45:56.097Z,5.35
2022-08-17T18:48:53.724Z,5.95
2022-08-17T18:51:40.525Z,7.47
2022-08-17T18:54:21.299Z,9.82
2022-08-17T18:56:57.421Z,8.20
2022-08-17T18:59:44.465Z,7.78
2022-08-17T19:02:44.198Z,8.30
2022-08-17T19:05:31.270Z,8.38
2022-08-17T19:08:25.040Z,9.32
2022-08-17T19:11:01.284Z,15.25
2022-08-17T19:13:38.303Z,11.55
2022-08-17T19:16:15.750Z,8.90
2022-08-17T19:18:53.135Z,5.85
2022-08-17T19:21:27.982Z,7.15
2022-08-17T19:24:06.497Z,11.87
2022-08-17T19:26:54.772Z,9.87
2022-08-17T19:29:38.307Z,9.63
2022-08-17T19:32:14.501Z,6.30
2022-08-17T19:34:44.837Z,11.70
2022-08-17T19:37:33.985Z,5.53
2022-08-17T19:40:41.775Z,9.63
2022-08-17T19:43:20.853Z,9.63
2022-08-17T19:46:05.925Z,10.17
2022-08-17T19:48:50.615Z,7.20
2022-08-17T19:51:30.931Z,7.40
2022-08-17T19:54:14.136Z,9.00
2022-08-17T19:56:56.596Z,10.07
2022-08-17T19:59:49.025Z,12.57
2022-08-17T20:02:34.932Z,7.27
2022-08-17T20:05:11.229Z,6.57
2022-08-17T20:07:51.334Z,6.60
2022-08-17T20:10:36.414Z,8.77
2022-08-17T20:13:11.527Z,9.00
2022-08-17T20:15:43.928Z,6.53
2022-08-17T20:18:25.251Z,9.40
2022-08-17T20:21:02.925Z,8.93
2022-08-17T20:23:46.267Z,6.57
2022-08-17T20:26:22.672Z,7.13
2022-08-17T20:29:36.830Z,5.63
2022-08-17T20:32:28.951Z,8.07
2022-08-17T20:35:23.622Z,6.77
2022-08-17T20:37:57.984Z,8.77
2022-08-17T20:40:35.162Z,9.37
2022-08-17T20:43:58.926Z,12.07
2022-08-17T20:46:52.171Z,8.83
2022-08-17T20:49:31.876Z,6.77
2022-08-17T20:52:08.775Z,7.33
2022-08-17T20:54:53.466Z,7.80
2022-08-17T20:57:48.843Z,6.83
2022-08-17T21:00:52.687Z,9.83
2022-08-17T21:03:54.158Z,7.03
2022-08-17T21:06:26.092Z,9.43
2022-08-17T21:09:19.296Z,8.33
2022-08-17T21:12:04.584Z,6.73
2022-08-17T21:15:01.467Z,11.30
2022-08-17T21:17:43.538Z,9.73
2022-08-17T21:20:32.524Z,10.60
2022-08-17T21:23:47.945Z,6.27
2022-08-17T21:26:32.186Z,8.03
2022-08-17T21:29:30.433Z,6.60
2022-08-17T21:32:24.301Z,7.23
2022-08-17T21:35:28.851Z,7.97
2022-08-17T21:38:04.942Z,9.17
2022-08-17T21:40:35.298Z,7.70
2022-08-17T21:43:23.571Z,7.47
2022-08-17T21:46:06.168Z,7.10
2022-08-17T21:48:44.583Z,6.73
2022-08-17T21:51:19.077Z,6.93
2022-08-17T21:53:52.402Z,8.33
2022-08-17T21:56:27.327Z,6.63
2022-08-17T21:59:01.866Z,8.67
2022-08-17T22:01:35.276Z,8.37
2022-08-17T22:04:19.223Z,6.23
2022-08-17T22:06:55.822Z,7.53
2022-08-17T22:09:30.102Z,7.20
2022-08-17T22:12:07.482Z,5.90
2022-08-17T22:14:52.217Z,7.37
2022-08-17T22:17:25.396Z,8.13
2022-08-17T22:20:00.734Z,10.33
2022-08-17T22:22:57.777Z,7.83
2022-08-17T22:25:27.227Z,8.13
2022-08-17T22:28:00.051Z,9.57
2022-08-17T22:30:37.331Z,10.70
2022-08-17T22:33:37.109Z,8.77
2022-08-17T22:36:25.454Z,7.93
2022-08-17T22:38:56.956Z,9.93
2022-08-17T22:41:53.941Z,8.17
2022-08-17T22:44:31.589Z,10.47
2022-08-17T22:47:11.345Z,8.53
2022-08-17T22:49:53.953Z,7.20
2022-08-17T22:52:34.866Z,8.40
2022-08-17T22:55:30.673Z,8.10
2022-08-17T22:58:17.172Z,8.03
2022-08-17T23:00:48.911Z,11.13
2022-08-17T23:03:22.442Z,6.37
2022-08-17T23:06:06.715Z,6.60
2022-08-17T23:08:44.079Z,8.17
2022-08-17T23:11:12.162Z,8.67
2022-08-17T23:13:40.337Z,13.47
2022-08-17T23:16:08.520Z,12.70
2022-08-17T23:18:37.944Z,8.03
2022-08-17T23:21:07.674Z,6.30
2022-08-17T23:23:37.082Z,9.67
2022-08-17T23:26:11.239Z,9.40
2022-08-17T23:28:41.060Z,8.80
2022-08-17T23:31:09.697Z,7.30
2022-08-17T23:33:41.169Z,6.40
2022-08-17T23:36:15.293Z,6.20
2022-08-17T23:38:46.703Z,8.17
2022-08-17T23:41:19.761Z,7.13
2022-08-17T23:43:52.330Z,6.73
2022-08-17T23:46:24.506Z,7.33
2022-08-17T23:48:54.538Z,7.13
2022-08-17T23:51:29.057Z,7.10
2022-08-17T23:54:07.879Z,6.47
2022-08-17T23:56:42.011Z,6.83
2022-08-17T23:59:10.207Z,6.70
